sensor_id;sensor_type;location;lat;lon;timestamp;P1;durP1;ratioP1;P2;durP2;ratioP2
55879;SDS011;41802;51.564;-1.838;2023-12-20T00:02:18;12.50;;;1.20;;
55879;SDS011;41802;51.564;-1.838;2023-12-20T00:04:47;10.45;;;0.93;;
55879;SDS011;41802;51.564;-1.838;2023-12-20T00:07:15;7.53;;;1.33;;
55879;SDS011;41802;51.564;-1.838;2023-12-20T00:09:43;9.48;;;1.23;;
55879;SDS011;41802;51.564;-1.838;2023-12-20T00:12:11;11.55;;;1.58;;
55879;SDS011;41802;51.564;-1.838;2023-12-20T00:14:39;9.80;;;1.33;;
55879;SDS011;41802;51.564;-1.838;2023-12-20T00:17:06;7.43;;;1.25;;
55879;SDS011;41802;51.564;-1.838;2023-12-20T00:19:34;9.68;;;0.90;;
55879;SDS011;41802;51.564;-1.838;2023-12-20T00:22:05;8.48;;;0.85;;
55879;SDS011;41802;51.564;-1.838;2023-12-20T00:24:33;12.85;;;1.42;;
55879;SDS011;41802;51.564;-1.838;2023-12-20T00:27:01;12.03;;;1.10;;
55879;SDS011;41802;51.564;-1.838;2023-12-20T00:29:28;13.73;;;1.10;;
55879;SDS011;41802;51.564;-1.838;2023-12-20T00:31:56;9.50;;;1.17;;
55879;SDS011;41802;51.564;-1.838;2023-12-20T00:34:24;12.20;;;1.17;;
55879;SDS011;41802;51.564;-1.838;2023-12-20T00:36:53;20.73;;;1.42;;
55879;SDS011;41802;51.564;-1.838;2023-12-20T00:39:22;9.83;;;1.10;;
55879;SDS011;41802;51.564;-1.838;2023-12-20T00:41:50;18.02;;;1.55;;
55879;SDS011;41802;51.564;-1.838;2023-12-20T00:44:18;12.20;;;1.98;;
55879;SDS011;41802;51.564;-1.838;2023-12-20T00:46:46;15.55;;;1.20;;
55879;SDS011;41802;51.564;-1.838;2023-12-20T00:49:14;6.13;;;0.60;;
55879;SDS011;41802;51.564;-1.838;2023-12-20T00:51:42;8.90;;;0.70;;
55879;SDS011;41802;51.564;-1.838;2023-12-20T00:54:10;9.27;;;1.35;;
55879;SDS011;41802;51.564;-1.838;2023-12-20T00:56:39;11.35;;;0.80;;
55879;SDS011;41802;51.564;-1.838;2023-12-20T00:59:07;10.10;;;0.85;;
55879;SDS011;41802;51.564;-1.838;2023-12-20T01:01:35;11.60;;;1.35;;
55879;SDS011;41802;51.564;-1.838;2023-12-20T01:04:02;10.60;;;0.73;;
55879;SDS011;41802;51.564;-1.838;2023-12-20T01:06:30;15.68;;;1.00;;
55879;SDS011;41802;51.564;-1.838;2023-12-20T01:08:58;7.22;;;0.75;;
55879;SDS011;41802;51.564;-1.838;2023-12-20T01:11:27;17.73;;;1.42;;
55879;SDS011;41802;51.564;-1.838;2023-12-20T01:13:59;7.88;;;0.93;;
55879;SDS011;41802;51.564;-1.838;2023-12-20T01:16:26;11.17;;;0.70;;
55879;SDS011;41802;51.564;-1.838;2023-12-20T01:18:54;10.90;;;1.05;;
55879;SDS011;41802;51.564;-1.838;2023-12-20T01:21:22;15.30;;;2.45;;
55879;SDS011;41802;51.564;-1.838;2023-12-20T01:23:50;11.73;;;1.83;;
55879;SDS011;41802;51.564;-1.838;2023-12-20T01:26:17;12.23;;;1.70;;
55879;SDS011;41802;51.564;-1.838;2023-12-20T01:28:45;12.43;;;2.10;;
55879;SDS011;41802;51.564;-1.838;2023-12-20T01:31:14;17.98;;;2.03;;
55879;SDS011;41802;51.564;-1.838;2023-12-20T01:33:44;11.30;;;1.52;;
55879;SDS011;41802;51.564;-1.838;2023-12-20T01:36:12;9.65;;;1.25;;
55879;SDS011;41802;51.564;-1.838;2023-12-20T01:38:40;13.00;;;1.77;;
55879;SDS011;41802;51.564;-1.838;2023-12-20T01:41:07;6.43;;;0.83;;
55879;SDS011;41802;51.564;-1.838;2023-12-20T01:43:35;4.85;;;0.68;;
55879;SDS011;41802;51.564;-1.838;2023-12-20T01:46:17;10.80;;;1.50;;
55879;SDS011;41802;51.564;-1.838;2023-12-20T01:49:03;10.15;;;1.02;;
55879;SDS011;41802;51.564;-1.838;2023-12-20T01:51:32;7.45;;;1.05;;
55879;SDS011;41802;51.564;-1.838;2023-12-20T01:54:03;9.97;;;1.13;;
55879;SDS011;41802;51.564;-1.838;2023-12-20T01:56:32;11.05;;;0.85;;
55879;SDS011;41802;51.564;-1.838;2023-12-20T01:59:00;11.38;;;1.83;;
55879;SDS011;41802;51.564;-1.838;2023-12-20T02:01:47;9.32;;;1.00;;
55879;SDS011;41802;51.564;-1.838;2023-12-20T02:04:32;13.20;;;1.77;;
55879;SDS011;41802;51.564;-1.838;2023-12-20T02:07:00;10.00;;;1.07;;
55879;SDS011;41802;51.564;-1.838;2023-12-20T02:09:29;8.15;;;1.25;;
55879;SDS011;41802;51.564;-1.838;2023-12-20T02:11:57;11.18;;;1.67;;
55879;SDS011;41802;51.564;-1.838;2023-12-20T02:14:25;14.40;;;2.20;;
55879;SDS011;41802;51.564;-1.838;2023-12-20T02:16:54;15.23;;;3.13;;
55879;SDS011;41802;51.564;-1.838;2023-12-20T02:19:22;12.10;;;3.47;;
55879;SDS011;41802;51.564;-1.838;2023-12-20T02:21:51;16.88;;;3.40;;
55879;SDS011;41802;51.564;-1.838;2023-12-20T02:24:32;17.33;;;3.83;;
55879;SDS011;41802;51.564;-1.838;2023-12-20T02:26:59;19.35;;;3.05;;
55879;SDS011;41802;51.564;-1.838;2023-12-20T02:29:27;14.13;;;2.22;;
55879;SDS011;41802;51.564;-1.838;2023-12-20T02:31:55;16.17;;;2.13;;
55879;SDS011;41802;51.564;-1.838;2023-12-20T02:34:23;13.07;;;2.25;;
55879;SDS011;41802;51.564;-1.838;2023-12-20T02:36:52;15.45;;;2.22;;
55879;SDS011;41802;51.564;-1.838;2023-12-20T02:39:22;13.15;;;1.60;;
55879;SDS011;41802;51.564;-1.838;2023-12-20T02:41:50;8.50;;;1.27;;
55879;SDS011;41802;51.564;-1.838;2023-12-20T02:44:18;14.60;;;1.50;;
55879;SDS011;41802;51.564;-1.838;2023-12-20T02:46:45;12.23;;;1.00;;
55879;SDS011;41802;51.564;-1.838;2023-12-20T02:49:13;11.05;;;1.70;;
55879;SDS011;41802;51.564;-1.838;2023-12-20T02:51:41;14.65;;;1.67;;
55879;SDS011;41802;51.564;-1.838;2023-12-20T02:54:10;9.80;;;1.20;;
55879;SDS011;41802;51.564;-1.838;2023-12-20T02:56:38;14.23;;;1.37;;
55879;SDS011;41802;51.564;-1.838;2023-12-20T02:59:05;10.98;;;1.30;;
55879;SDS011;41802;51.564;-1.838;2023-12-20T03:01:35;13.98;;;1.17;;
55879;SDS011;41802;51.564;-1.838;2023-12-20T03:04:03;10.82;;;0.93;;
55879;SDS011;41802;51.564;-1.838;2023-12-20T03:06:30;9.70;;;1.23;;
55879;SDS011;41802;51.564;-1.838;2023-12-20T03:08:58;7.73;;;0.97;;
55879;SDS011;41802;51.564;-1.838;2023-12-20T03:11:27;14.90;;;1.52;;
55879;SDS011;41802;51.564;-1.838;2023-12-20T03:13:55;12.35;;;1.85;;
55879;SDS011;41802;51.564;-1.838;2023-12-20T03:16:23;9.95;;;1.23;;
55879;SDS011;41802;51.564;-1.838;2023-12-20T03:18:52;10.88;;;1.10;;
55879;SDS011;41802;51.564;-1.838;2023-12-20T03:21:19;15.70;;;1.80;;
55879;SDS011;41802;51.564;-1.838;2023-12-20T03:23:47;11.30;;;1.33;;
55879;SDS011;41802;51.564;-1.838;2023-12-20T03:26:15;10.10;;;1.08;;
55879;SDS011;41802;51.564;-1.838;2023-12-20T03:28:44;14.23;;;1.33;;
55879;SDS011;41802;51.564;-1.838;2023-12-20T03:31:12;8.98;;;1.65;;
55879;SDS011;41802;51.564;-1.838;2023-12-20T03:33:41;11.50;;;1.23;;
55879;SDS011;41802;51.564;-1.838;2023-12-20T03:36:09;11.90;;;1.27;;
55879;SDS011;41802;51.564;-1.838;2023-12-20T03:38:37;8.45;;;1.45;;
55879;SDS011;41802;51.564;-1.838;2023-12-20T03:41:04;7.72;;;0.85;;
55879;SDS011;41802;51.564;-1.838;2023-12-20T03:43:32;10.50;;;0.75;;
55879;SDS011;41802;51.564;-1.838;2023-12-20T03:46:01;14.10;;;1.33;;
55879;SDS011;41802;51.564;-1.838;2023-12-20T03:48:49;13.63;;;1.05;;
55879;SDS011;41802;51.564;-1.838;2023-12-20T03:51:17;6.13;;;0.88;;
55879;SDS011;41802;51.564;-1.838;2023-12-20T03:53:44;10.90;;;1.48;;
55879;SDS011;41802;51.564;-1.838;2023-12-20T03:56:15;12.13;;;2.00;;
55879;SDS011;41802;51.564;-1.838;2023-12-20T03:58:42;12.17;;;1.60;;
55879;SDS011;41802;51.564;-1.838;2023-12-20T04:01:11;15.98;;;1.42;;
55879;SDS011;41802;51.564;-1.838;2023-12-20T04:03:39;13.35;;;1.33;;
55879;SDS011;41802;51.564;-1.838;2023-12-20T04:06:07;9.55;;;1.10;;
55879;SDS011;41802;51.564;-1.838;2023-12-20T04:08:35;13.48;;;1.00;;
55879;SDS011;41802;51.564;-1.838;2023-12-20T04:11:03;14.67;;;1.13;;
55879;SDS011;41802;51.564;-1.838;2023-12-20T04:13:31;10.85;;;1.05;;
55879;SDS011;41802;51.564;-1.838;2023-12-20T04:15:58;12.05;;;1.00;;
55879;SDS011;41802;51.564;-1.838;2023-12-20T04:18:27;12.18;;;1.25;;
55879;SDS011;41802;51.564;-1.838;2023-12-20T04:20:55;13.02;;;0.93;;
55879;SDS011;41802;51.564;-1.838;2023-12-20T04:23:23;11.10;;;1.67;;
55879;SDS011;41802;51.564;-1.838;2023-12-20T04:25:51;9.18;;;1.00;;
55879;SDS011;41802;51.564;-1.838;2023-12-20T04:28:19;11.75;;;1.27;;
55879;SDS011;41802;51.564;-1.838;2023-12-20T04:30:51;11.63;;;1.23;;
55879;SDS011;41802;51.564;-1.838;2023-12-20T04:33:19;16.50;;;2.08;;
55879;SDS011;41802;51.564;-1.838;2023-12-20T04:35:53;9.33;;;0.93;;
55879;SDS011;41802;51.564;-1.838;2023-12-20T04:38:25;9.13;;;1.00;;
55879;SDS011;41802;51.564;-1.838;2023-12-20T04:40:55;12.07;;;1.08;;
55879;SDS011;41802;51.564;-1.838;2023-12-20T04:43:23;12.55;;;1.08;;
55879;SDS011;41802;51.564;-1.838;2023-12-20T04:45:51;8.48;;;1.20;;
55879;SDS011;41802;51.564;-1.838;2023-12-20T04:48:19;13.77;;;1.83;;
55879;SDS011;41802;51.564;-1.838;2023-12-20T04:50:47;10.23;;;0.98;;
55879;SDS011;41802;51.564;-1.838;2023-12-20T04:53:16;10.05;;;1.10;;
55879;SDS011;41802;51.564;-1.838;2023-12-20T04:55:44;10.50;;;0.70;;
55879;SDS011;41802;51.564;-1.838;2023-12-20T04:58:11;14.48;;;1.10;;
55879;SDS011;41802;51.564;-1.838;2023-12-20T05:00:39;13.40;;;0.87;;
55879;SDS011;41802;51.564;-1.838;2023-12-20T05:03:07;11.45;;;0.77;;
55879;SDS011;41802;51.564;-1.838;2023-12-20T05:05:35;11.32;;;1.13;;
55879;SDS011;41802;51.564;-1.838;2023-12-20T05:08:03;10.35;;;1.23;;
55879;SDS011;41802;51.564;-1.838;2023-12-20T05:10:33;10.80;;;0.88;;
55879;SDS011;41802;51.564;-1.838;2023-12-20T05:13:01;7.67;;;0.90;;
55879;SDS011;41802;51.564;-1.838;2023-12-20T05:15:29;12.60;;;0.82;;
55879;SDS011;41802;51.564;-1.838;2023-12-20T05:17:57;13.40;;;1.42;;
55879;SDS011;41802;51.564;-1.838;2023-12-20T05:20:24;15.45;;;1.55;;
55879;SDS011;41802;51.564;-1.838;2023-12-20T05:22:52;12.05;;;1.42;;
55879;SDS011;41802;51.564;-1.838;2023-12-20T05:25:20;9.97;;;1.03;;
55879;SDS011;41802;51.564;-1.838;2023-12-20T05:27:50;14.20;;;1.17;;
55879;SDS011;41802;51.564;-1.838;2023-12-20T05:30:18;13.95;;;1.70;;
55879;SDS011;41802;51.564;-1.838;2023-12-20T05:32:46;13.32;;;1.42;;
55879;SDS011;41802;51.564;-1.838;2023-12-20T05:35:14;9.30;;;1.42;;
55879;SDS011;41802;51.564;-1.838;2023-12-20T05:37:43;14.00;;;1.40;;
55879;SDS011;41802;51.564;-1.838;2023-12-20T05:40:13;14.85;;;1.27;;
55879;SDS011;41802;51.564;-1.838;2023-12-20T05:42:41;7.15;;;1.08;;
55879;SDS011;41802;51.564;-1.838;2023-12-20T05:45:11;15.55;;;1.52;;
55879;SDS011;41802;51.564;-1.838;2023-12-20T05:47:39;15.00;;;1.33;;
55879;SDS011;41802;51.564;-1.838;2023-12-20T05:50:06;9.80;;;0.87;;
55879;SDS011;41802;51.564;-1.838;2023-12-20T05:52:35;14.68;;;1.30;;
55879;SDS011;41802;51.564;-1.838;2023-12-20T05:55:03;13.23;;;1.13;;
55879;SDS011;41802;51.564;-1.838;2023-12-20T05:57:31;10.25;;;1.23;;
55879;SDS011;41802;51.564;-1.838;2023-12-20T05:59:58;14.90;;;1.83;;
55879;SDS011;41802;51.564;-1.838;2023-12-20T06:02:28;15.53;;;1.73;;
55879;SDS011;41802;51.564;-1.838;2023-12-20T06:04:55;11.18;;;1.25;;
55879;SDS011;41802;51.564;-1.838;2023-12-20T06:07:24;10.75;;;1.05;;
55879;SDS011;41802;51.564;-1.838;2023-12-20T06:09:52;14.32;;;1.45;;
55879;SDS011;41802;51.564;-1.838;2023-12-20T06:12:20;12.23;;;0.98;;
55879;SDS011;41802;51.564;-1.838;2023-12-20T06:14:48;13.00;;;1.10;;
55879;SDS011;41802;51.564;-1.838;2023-12-20T06:17:16;12.05;;;1.40;;
55879;SDS011;41802;51.564;-1.838;2023-12-20T06:19:45;12.43;;;1.85;;
55879;SDS011;41802;51.564;-1.838;2023-12-20T06:22:15;19.98;;;1.67;;
55879;SDS011;41802;51.564;-1.838;2023-12-20T06:24:44;10.80;;;1.08;;
55879;SDS011;41802;51.564;-1.838;2023-12-20T06:27:11;12.13;;;1.37;;
55879;SDS011;41802;51.564;-1.838;2023-12-20T06:29:39;13.75;;;1.80;;
55879;SDS011;41802;51.564;-1.838;2023-12-20T06:32:09;6.32;;;0.85;;
55879;SDS011;41802;51.564;-1.838;2023-12-20T06:34:37;5.57;;;0.88;;
55879;SDS011;41802;51.564;-1.838;2023-12-20T06:37:10;9.13;;;1.05;;
55879;SDS011;41802;51.564;-1.838;2023-12-20T06:39:38;9.20;;;0.70;;
55879;SDS011;41802;51.564;-1.838;2023-12-20T06:42:06;12.13;;;1.95;;
55879;SDS011;41802;51.564;-1.838;2023-12-20T06:44:33;8.68;;;1.23;;
55879;SDS011;41802;51.564;-1.838;2023-12-20T06:47:01;8.40;;;1.15;;
55879;SDS011;41802;51.564;-1.838;2023-12-20T06:49:33;14.27;;;1.88;;
55879;SDS011;41802;51.564;-1.838;2023-12-20T06:52:00;16.87;;;1.40;;
55879;SDS011;41802;51.564;-1.838;2023-12-20T06:54:30;9.30;;;0.80;;
55879;SDS011;41802;51.564;-1.838;2023-12-20T06:56:59;13.18;;;1.67;;
55879;SDS011;41802;51.564;-1.838;2023-12-20T06:59:29;12.98;;;1.17;;
55879;SDS011;41802;51.564;-1.838;2023-12-20T07:01:57;8.43;;;1.50;;
55879;SDS011;41802;51.564;-1.838;2023-12-20T07:04:25;12.30;;;1.50;;
55879;SDS011;41802;51.564;-1.838;2023-12-20T07:06:53;11.05;;;1.02;;
55879;SDS011;41802;51.564;-1.838;2023-12-20T07:09:24;6.90;;;0.77;;
55879;SDS011;41802;51.564;-1.838;2023-12-20T07:11:53;8.27;;;1.75;;
55879;SDS011;41802;51.564;-1.838;2023-12-20T07:14:21;9.83;;;1.93;;
55879;SDS011;41802;51.564;-1.838;2023-12-20T07:16:49;8.38;;;1.13;;
55879;SDS011;41802;51.564;-1.838;2023-12-20T07:19:20;9.70;;;1.15;;
55879;SDS011;41802;51.564;-1.838;2023-12-20T07:21:48;19.23;;;1.95;;
55879;SDS011;41802;51.564;-1.838;2023-12-20T07:24:15;12.10;;;1.30;;
55879;SDS011;41802;51.564;-1.838;2023-12-20T07:26:43;8.83;;;1.00;;
55879;SDS011;41802;51.564;-1.838;2023-12-20T07:29:13;11.45;;;0.68;;
55879;SDS011;41802;51.564;-1.838;2023-12-20T07:31:41;10.45;;;1.20;;
55879;SDS011;41802;51.564;-1.838;2023-12-20T07:34:09;11.55;;;0.93;;
55879;SDS011;41802;51.564;-1.838;2023-12-20T07:36:37;12.02;;;1.25;;
55879;SDS011;41802;51.564;-1.838;2023-12-20T07:39:05;8.37;;;0.93;;
55879;SDS011;41802;51.564;-1.838;2023-12-20T07:41:32;14.05;;;0.98;;
55879;SDS011;41802;51.564;-1.838;2023-12-20T07:44:00;8.73;;;0.50;;
55879;SDS011;41802;51.564;-1.838;2023-12-20T07:46:29;8.07;;;1.42;;
55879;SDS011;41802;51.564;-1.838;2023-12-20T07:48:57;9.50;;;0.93;;
55879;SDS011;41802;51.564;-1.838;2023-12-20T07:51:26;9.00;;;1.50;;
55879;SDS011;41802;51.564;-1.838;2023-12-20T07:53:53;9.20;;;1.02;;
55879;SDS011;41802;51.564;-1.838;2023-12-20T07:56:21;10.63;;;1.20;;
55879;SDS011;41802;51.564;-1.838;2023-12-20T08:02:00;10.00;;;0.95;;
55879;SDS011;41802;51.564;-1.838;2023-12-20T08:04:28;7.87;;;0.60;;
55879;SDS011;41802;51.564;-1.838;2023-12-20T08:06:56;18.27;;;1.73;;
55879;SDS011;41802;51.564;-1.838;2023-12-20T08:09:24;10.45;;;0.90;;
55879;SDS011;41802;51.564;-1.838;2023-12-20T08:11:51;8.65;;;0.90;;
55879;SDS011;41802;51.564;-1.838;2023-12-20T08:14:19;7.72;;;0.93;;
55879;SDS011;41802;51.564;-1.838;2023-12-20T08:16:48;5.07;;;0.97;;
55879;SDS011;41802;51.564;-1.838;2023-12-20T08:19:19;9.38;;;0.85;;
55879;SDS011;41802;51.564;-1.838;2023-12-20T08:21:47;7.00;;;0.68;;
55879;SDS011;41802;51.564;-1.838;2023-12-20T08:24:15;6.63;;;1.27;;
55879;SDS011;41802;51.564;-1.838;2023-12-20T08:26:43;7.85;;;1.02;;
55879;SDS011;41802;51.564;-1.838;2023-12-20T08:29:12;10.90;;;1.30;;
55879;SDS011;41802;51.564;-1.838;2023-12-20T08:31:42;5.45;;;0.60;;
55879;SDS011;41802;51.564;-1.838;2023-12-20T08:34:13;7.72;;;0.90;;
55879;SDS011;41802;51.564;-1.838;2023-12-20T08:36:43;6.43;;;0.93;;
55879;SDS011;41802;51.564;-1.838;2023-12-20T08:39:10;4.78;;;0.82;;
55879;SDS011;41802;51.564;-1.838;2023-12-20T08:41:40;10.53;;;0.80;;
55879;SDS011;41802;51.564;-1.838;2023-12-20T08:44:08;8.57;;;0.80;;
55879;SDS011;41802;51.564;-1.838;2023-12-20T08:46:35;6.07;;;1.00;;
55879;SDS011;41802;51.564;-1.838;2023-12-20T08:49:03;12.80;;;1.38;;
55879;SDS011;41802;51.564;-1.838;2023-12-20T08:51:31;6.47;;;1.00;;
55879;SDS011;41802;51.564;-1.838;2023-12-20T08:54:01;12.63;;;1.37;;
55879;SDS011;41802;51.564;-1.838;2023-12-20T08:56:33;8.15;;;0.82;;
55879;SDS011;41802;51.564;-1.838;2023-12-20T08:59:01;13.60;;;1.58;;
55879;SDS011;41802;51.564;-1.838;2023-12-20T09:01:29;8.05;;;1.33;;
55879;SDS011;41802;51.564;-1.838;2023-12-20T09:03:57;6.28;;;1.20;;
55879;SDS011;41802;51.564;-1.838;2023-12-20T09:06:25;7.43;;;1.00;;
55879;SDS011;41802;51.564;-1.838;2023-12-20T09:08:52;8.95;;;1.00;;
55879;SDS011;41802;51.564;-1.838;2023-12-20T09:11:23;5.25;;;0.70;;
55879;SDS011;41802;51.564;-1.838;2023-12-20T09:13:51;6.63;;;0.80;;
55879;SDS011;41802;51.564;-1.838;2023-12-20T09:16:19;8.60;;;0.98;;
55879;SDS011;41802;51.564;-1.838;2023-12-20T09:18:47;7.43;;;0.70;;
55879;SDS011;41802;51.564;-1.838;2023-12-20T09:21:15;7.22;;;0.98;;
55879;SDS011;41802;51.564;-1.838;2023-12-20T09:23:43;5.35;;;0.93;;
55879;SDS011;41802;51.564;-1.838;2023-12-20T09:26:11;7.68;;;1.67;;
55879;SDS011;41802;51.564;-1.838;2023-12-20T09:28:40;4.78;;;0.70;;
55879;SDS011;41802;51.564;-1.838;2023-12-20T09:31:08;5.93;;;0.57;;
55879;SDS011;41802;51.564;-1.838;2023-12-20T09:33:37;4.72;;;0.60;;
55879;SDS011;41802;51.564;-1.838;2023-12-20T09:36:07;4.80;;;1.10;;
55879;SDS011;41802;51.564;-1.838;2023-12-20T09:38:37;9.60;;;0.73;;
55879;SDS011;41802;51.564;-1.838;2023-12-20T09:41:04;7.40;;;0.73;;
55879;SDS011;41802;51.564;-1.838;2023-12-20T09:43:32;2.60;;;0.50;;
55879;SDS011;41802;51.564;-1.838;2023-12-20T09:46:05;8.07;;;1.25;;
55879;SDS011;41802;51.564;-1.838;2023-12-20T09:48:33;7.57;;;0.70;;
55879;SDS011;41802;51.564;-1.838;2023-12-20T09:51:02;5.95;;;0.60;;
55879;SDS011;41802;51.564;-1.838;2023-12-20T09:53:30;6.55;;;0.90;;
55879;SDS011;41802;51.564;-1.838;2023-12-20T09:55:58;7.17;;;1.10;;
55879;SDS011;41802;51.564;-1.838;2023-12-20T09:58:27;7.63;;;1.10;;
55879;SDS011;41802;51.564;-1.838;2023-12-20T10:00:55;9.40;;;0.77;;
55879;SDS011;41802;51.564;-1.838;2023-12-20T10:03:25;7.47;;;1.35;;
55879;SDS011;41802;51.564;-1.838;2023-12-20T10:05:57;4.30;;;0.52;;
55879;SDS011;41802;51.564;-1.838;2023-12-20T10:08:25;4.72;;;0.65;;
55879;SDS011;41802;51.564;-1.838;2023-12-20T10:10:53;10.17;;;1.33;;
55879;SDS011;41802;51.564;-1.838;2023-12-20T10:13:21;5.20;;;0.55;;
55879;SDS011;41802;51.564;-1.838;2023-12-20T10:15:49;4.57;;;0.50;;
55879;SDS011;41802;51.564;-1.838;2023-12-20T10:18:17;3.28;;;0.30;;
55879;SDS011;41802;51.564;-1.838;2023-12-20T10:20:46;4.88;;;0.65;;
55879;SDS011;41802;51.564;-1.838;2023-12-20T10:23:15;5.80;;;0.40;;
55879;SDS011;41802;51.564;-1.838;2023-12-20T10:25:52;5.47;;;0.83;;
55879;SDS011;41802;51.564;-1.838;2023-12-20T10:28:23;7.55;;;0.93;;
55879;SDS011;41802;51.564;-1.838;2023-12-20T10:30:54;5.57;;;0.70;;
55879;SDS011;41802;51.564;-1.838;2023-12-20T10:33:24;9.57;;;0.90;;
55879;SDS011;41802;51.564;-1.838;2023-12-20T10:35:54;6.32;;;0.50;;
55879;SDS011;41802;51.564;-1.838;2023-12-20T10:38:23;3.23;;;0.40;;
55879;SDS011;41802;51.564;-1.838;2023-12-20T10:40:52;7.82;;;0.75;;
55879;SDS011;41802;51.564;-1.838;2023-12-20T10:43:25;4.80;;;0.68;;
55879;SDS011;41802;51.564;-1.838;2023-12-20T10:45:54;6.90;;;0.75;;
55879;SDS011;41802;51.564;-1.838;2023-12-20T10:48:21;4.72;;;0.55;;
55879;SDS011;41802;51.564;-1.838;2023-12-20T10:50:57;8.23;;;0.60;;
55879;SDS011;41802;51.564;-1.838;2023-12-20T10:53:25;6.53;;;0.70;;
55879;SDS011;41802;51.564;-1.838;2023-12-20T10:55:54;7.72;;;0.68;;
55879;SDS011;41802;51.564;-1.838;2023-12-20T10:58:23;8.85;;;1.23;;
55879;SDS011;41802;51.564;-1.838;2023-12-20T11:00:52;5.93;;;0.73;;
55879;SDS011;41802;51.564;-1.838;2023-12-20T11:03:22;2.60;;;0.40;;
55879;SDS011;41802;51.564;-1.838;2023-12-20T11:05:53;7.53;;;0.63;;
55879;SDS011;41802;51.564;-1.838;2023-12-20T11:08:26;4.45;;;0.70;;
55879;SDS011;41802;51.564;-1.838;2023-12-20T11:10:56;7.13;;;0.90;;
55879;SDS011;41802;51.564;-1.838;2023-12-20T11:13:29;6.88;;;0.85;;
55879;SDS011;41802;51.564;-1.838;2023-12-20T11:15:58;5.47;;;0.97;;
55879;SDS011;41802;51.564;-1.838;2023-12-20T11:18:28;7.85;;;0.80;;
55879;SDS011;41802;51.564;-1.838;2023-12-20T11:21:02;5.88;;;0.68;;
55879;SDS011;41802;51.564;-1.838;2023-12-20T11:23:33;3.67;;;0.60;;
55879;SDS011;41802;51.564;-1.838;2023-12-20T11:26:02;6.70;;;0.80;;
55879;SDS011;41802;51.564;-1.838;2023-12-20T11:28:31;5.20;;;0.67;;
55879;SDS011;41802;51.564;-1.838;2023-12-20T11:31:00;4.53;;;0.70;;
55879;SDS011;41802;51.564;-1.838;2023-12-20T11:33:29;5.47;;;0.93;;
55879;SDS011;41802;51.564;-1.838;2023-12-20T11:35:58;8.05;;;0.70;;
55879;SDS011;41802;51.564;-1.838;2023-12-20T11:38:27;7.25;;;0.90;;
55879;SDS011;41802;51.564;-1.838;2023-12-20T11:40:58;4.83;;;1.00;;
55879;SDS011;41802;51.564;-1.838;2023-12-20T11:43:30;4.75;;;0.60;;
55879;SDS011;41802;51.564;-1.838;2023-12-20T11:46:02;4.38;;;0.60;;
55879;SDS011;41802;51.564;-1.838;2023-12-20T11:48:47;4.40;;;0.57;;
55879;SDS011;41802;51.564;-1.838;2023-12-20T11:51:15;6.70;;;0.85;;
55879;SDS011;41802;51.564;-1.838;2023-12-20T11:53:43;7.20;;;0.87;;
55879;SDS011;41802;51.564;-1.838;2023-12-20T11:56:16;9.45;;;1.67;;
55879;SDS011;41802;51.564;-1.838;2023-12-20T11:58:44;4.50;;;0.73;;
55879;SDS011;41802;51.564;-1.838;2023-12-20T12:01:14;3.42;;;0.55;;
55879;SDS011;41802;51.564;-1.838;2023-12-20T12:03:42;6.50;;;0.75;;
55879;SDS011;41802;51.564;-1.838;2023-12-20T12:06:10;6.47;;;1.00;;
55879;SDS011;41802;51.564;-1.838;2023-12-20T12:08:39;9.52;;;1.02;;
55879;SDS011;41802;51.564;-1.838;2023-12-20T12:11:07;7.65;;;0.80;;
55879;SDS011;41802;51.564;-1.838;2023-12-20T12:13:36;4.30;;;0.50;;
55879;SDS011;41802;51.564;-1.838;2023-12-20T12:16:04;3.72;;;1.05;;
55879;SDS011;41802;51.564;-1.838;2023-12-20T12:18:32;7.13;;;0.90;;
55879;SDS011;41802;51.564;-1.838;2023-12-20T12:21:01;4.65;;;0.80;;
55879;SDS011;41802;51.564;-1.838;2023-12-20T12:23:40;5.80;;;0.80;;
55879;SDS011;41802;51.564;-1.838;2023-12-20T12:26:07;9.18;;;1.00;;
55879;SDS011;41802;51.564;-1.838;2023-12-20T12:28:37;2.88;;;0.40;;
55879;SDS011;41802;51.564;-1.838;2023-12-20T12:31:07;3.33;;;0.70;;
55879;SDS011;41802;51.564;-1.838;2023-12-20T12:33:35;7.22;;;0.98;;
55879;SDS011;41802;51.564;-1.838;2023-12-20T12:36:03;5.50;;;0.60;;
55879;SDS011;41802;51.564;-1.838;2023-12-20T12:38:56;8.27;;;0.95;;
55879;SDS011;41802;51.564;-1.838;2023-12-20T12:41:25;6.95;;;1.27;;
55879;SDS011;41802;51.564;-1.838;2023-12-20T12:43:54;5.53;;;0.65;;
55879;SDS011;41802;51.564;-1.838;2023-12-20T12:46:28;6.03;;;0.90;;
55879;SDS011;41802;51.564;-1.838;2023-12-20T12:48:56;6.30;;;1.07;;
55879;SDS011;41802;51.564;-1.838;2023-12-20T12:51:24;7.00;;;0.73;;
55879;SDS011;41802;51.564;-1.838;2023-12-20T12:53:52;7.10;;;0.93;;
55879;SDS011;41802;51.564;-1.838;2023-12-20T12:56:20;5.43;;;0.60;;
55879;SDS011;41802;51.564;-1.838;2023-12-20T12:58:49;6.82;;;0.90;;
55879;SDS011;41802;51.564;-1.838;2023-12-20T13:01:18;4.67;;;0.60;;
55879;SDS011;41802;51.564;-1.838;2023-12-20T13:03:46;4.20;;;0.65;;
55879;SDS011;41802;51.564;-1.838;2023-12-20T13:06:14;5.95;;;0.63;;
55879;SDS011;41802;51.564;-1.838;2023-12-20T13:08:42;3.88;;;0.60;;
55879;SDS011;41802;51.564;-1.838;2023-12-20T13:11:10;3.63;;;0.65;;
55879;SDS011;41802;51.564;-1.838;2023-12-20T13:13:39;3.47;;;0.50;;
55879;SDS011;41802;51.564;-1.838;2023-12-20T13:16:08;5.03;;;0.88;;
55879;SDS011;41802;51.564;-1.838;2023-12-20T13:18:38;5.28;;;0.80;;
55879;SDS011;41802;51.564;-1.838;2023-12-20T13:21:08;3.33;;;0.80;;
55879;SDS011;41802;51.564;-1.838;2023-12-20T13:23:36;5.30;;;0.77;;
55879;SDS011;41802;51.564;-1.838;2023-12-20T13:26:06;16.20;;;2.17;;
55879;SDS011;41802;51.564;-1.838;2023-12-20T13:28:34;5.00;;;1.05;;
55879;SDS011;41802;51.564;-1.838;2023-12-20T13:31:02;6.40;;;1.05;;
55879;SDS011;41802;51.564;-1.838;2023-12-20T13:33:30;4.80;;;0.73;;
55879;SDS011;41802;51.564;-1.838;2023-12-20T13:35:59;7.03;;;1.23;;
55879;SDS011;41802;51.564;-1.838;2023-12-20T13:38:34;3.53;;;0.60;;
55879;SDS011;41802;51.564;-1.838;2023-12-20T13:41:02;10.25;;;1.02;;
55879;SDS011;41802;51.564;-1.838;2023-12-20T13:43:29;9.95;;;1.05;;
55879;SDS011;41802;51.564;-1.838;2023-12-20T13:45:59;7.40;;;0.90;;
55879;SDS011;41802;51.564;-1.838;2023-12-20T13:48:44;9.70;;;1.70;;
55879;SDS011;41802;51.564;-1.838;2023-12-20T13:51:13;6.47;;;1.10;;
55879;SDS011;41802;51.564;-1.838;2023-12-20T13:53:42;7.03;;;1.08;;
55879;SDS011;41802;51.564;-1.838;2023-12-20T13:56:09;5.88;;;1.25;;
55879;SDS011;41802;51.564;-1.838;2023-12-20T13:58:37;9.55;;;1.10;;
55879;SDS011;41802;51.564;-1.838;2023-12-20T14:01:06;6.55;;;1.17;;
55879;SDS011;41802;51.564;-1.838;2023-12-20T14:03:34;7.27;;;0.80;;
55879;SDS011;41802;51.564;-1.838;2023-12-20T14:06:02;5.97;;;1.08;;
55879;SDS011;41802;51.564;-1.838;2023-12-20T14:08:32;5.47;;;0.90;;
55879;SDS011;41802;51.564;-1.838;2023-12-20T14:10:59;8.80;;;0.98;;
55879;SDS011;41802;51.564;-1.838;2023-12-20T14:13:27;5.40;;;1.02;;
55879;SDS011;41802;51.564;-1.838;2023-12-20T14:15:55;5.67;;;1.00;;
55879;SDS011;41802;51.564;-1.838;2023-12-20T14:18:25;6.20;;;1.00;;
55879;SDS011;41802;51.564;-1.838;2023-12-20T14:20:53;5.18;;;0.77;;
55879;SDS011;41802;51.564;-1.838;2023-12-20T14:23:21;8.82;;;1.00;;
55879;SDS011;41802;51.564;-1.838;2023-12-20T14:25:51;9.68;;;0.93;;
55879;SDS011;41802;51.564;-1.838;2023-12-20T14:28:19;3.67;;;0.50;;
55879;SDS011;41802;51.564;-1.838;2023-12-20T14:30:47;4.27;;;0.80;;
55879;SDS011;41802;51.564;-1.838;2023-12-20T14:33:15;9.77;;;1.20;;
55879;SDS011;41802;51.564;-1.838;2023-12-20T14:35:43;7.47;;;0.65;;
55879;SDS011;41802;51.564;-1.838;2023-12-20T14:38:11;4.45;;;0.57;;
55879;SDS011;41802;51.564;-1.838;2023-12-20T14:40:41;7.00;;;0.70;;
55879;SDS011;41802;51.564;-1.838;2023-12-20T14:43:10;8.30;;;1.00;;